Aérodrome :
LOGIN :

S'inscrire | Disclaimer

   EN    FR    IT 

 










Légende :    VFR   VFR Marginal   IFR   IFR Intensif   IFR Très Intensif
Visi : 
Plafond : 
>= 8 km
>= 3000ft
5 à 8 km
1000 à 3000 ft
1500m à 5 km
500 à 1000 ft
800 à 1500m
200 à 500 ft
< 800m
< 200 ft
Symboles :   Orages  Brouillard  Fortes neiges  Fortes précipitations  Vent > 20 kt
SIGMETs :   Divers  Orages  Givrage  Turbulence  Onde Orograph.  Cendres Volcan.







- Altitude de l'aérodrome : 200 ft


EBBL - Klein Brogel AB

DERNIER METAR :
  • 200725Z 22007KT 9999 -RA FEW020 SCT038 BKN060 04/02 Q1020 BLU BLU BECMG WHT

METARs EXPIRÉS :
  • 200655Z 22006KT 9999 FEW025 SCT040 BKN065 03/02 Q1021 BLU BLU BECMG WHT
  • 200625Z 23009KT 9999 SCT040 BKN065 04/02 Q1021 BLU BLU
  • 200555Z 23008KT 9999 SCT040 BKN065 04/02 Q1020 BLU BLU
  • 200525Z 22008KT 9999 SCT040 BKN070 03/02 Q1020 BLU BLU
  • 200503Z 22005KT 9999 SCT075 BKN090 03/02 Q1021 BLU BLU
  • 200455Z 21004KT 9999 SCT075 BKN090 03/02 Q1020 BLU BLU

TAF TAF EBBL
Valide du 20 à 07h jusqu'au 20 à 16h UTC


200541Z 2007/2016 23510KT 9999 BKN050 OVC060
BECMG 2007/2009 23010G20KT 9999 BKN020 OVC030
TEMPO 2007/2012 4000 -DZRA BKN010 OVC015
BECMG 2011/2013 24015G25KT 9999 BKN007 OVC010
TEMPO 2013/2016 3000 DZRA SCT005 OVC007
Pas de NOTAMs connus pour ce terrain.



MET'MAP, la Météo Aéronautique d'un coup d'oeil ! - Copyright ORBIFLY Décembre 2007 - Disclaimer

ORBIFLY MET'MAP TEAM :

Programmation & Développement : Alexandra Zaïnal
Conception & Développement : Baudouin d'Aumeries
Co-Programmation & Développement : Marc-Olivier Méhu
Soutien technique & logistique : Manuel Goepfert

Contact : metmap@orbifly.com




SOURCES & CREDITS :

   NOAA